sensor_id;sensor_type;location;lat;lon;timestamp;P1;durP1;ratioP1;P2;durP2;ratioP2
14789;SDS011;7486;51.010;10.366;2023-08-31T00:01:02;2.53;;;2.33;;
14789;SDS011;7486;51.010;10.366;2023-08-31T00:03:49;3.50;;;2.35;;
14789;SDS011;7486;51.010;10.366;2023-08-31T00:06:35;2.80;;;2.50;;
14789;SDS011;7486;51.010;10.366;2023-08-31T00:09:20;2.63;;;2.42;;
14789;SDS011;7486;51.010;10.366;2023-08-31T00:12:06;2.97;;;2.63;;
14789;SDS011;7486;51.010;10.366;2023-08-31T00:14:51;2.50;;;2.30;;
14789;SDS011;7486;51.010;10.366;2023-08-31T00:17:37;3.33;;;2.72;;
14789;SDS011;7486;51.010;10.366;2023-08-31T00:20:22;2.90;;;2.70;;
14789;SDS011;7486;51.010;10.366;2023-08-31T00:23:08;2.97;;;2.67;;
14789;SDS011;7486;51.010;10.366;2023-08-31T00:25:54;3.25;;;3.03;;
14789;SDS011;7486;51.010;10.366;2023-08-31T00:28:39;2.95;;;2.60;;
14789;SDS011;7486;51.010;10.366;2023-08-31T00:31:25;3.70;;;3.20;;
14789;SDS011;7486;51.010;10.366;2023-08-31T00:34:10;3.55;;;3.25;;
14789;SDS011;7486;51.010;10.366;2023-08-31T00:36:56;3.47;;;3.17;;
14789;SDS011;7486;51.010;10.366;2023-08-31T00:39:42;4.80;;;3.83;;
14789;SDS011;7486;51.010;10.366;2023-08-31T00:42:27;4.20;;;3.63;;
14789;SDS011;7486;51.010;10.366;2023-08-31T00:45:12;4.18;;;3.80;;
14789;SDS011;7486;51.010;10.366;2023-08-31T00:47:59;4.57;;;4.18;;
14789;SDS011;7486;51.010;10.366;2023-08-31T00:50:45;5.20;;;4.30;;
14789;SDS011;7486;51.010;10.366;2023-08-31T00:53:31;5.05;;;4.30;;
14789;SDS011;7486;51.010;10.366;2023-08-31T00:56:18;5.10;;;4.35;;
14789;SDS011;7486;51.010;10.366;2023-08-31T00:59:04;5.25;;;4.75;;
14789;SDS011;7486;51.010;10.366;2023-08-31T01:01:53;5.15;;;4.75;;
14789;SDS011;7486;51.010;10.366;2023-08-31T01:12:00;5.70;;;5.20;;
14789;SDS011;7486;51.010;10.366;2023-08-31T01:14:50;7.43;;;6.22;;
14789;SDS011;7486;51.010;10.366;2023-08-31T01:17:42;6.20;;;5.60;;
14789;SDS011;7486;51.010;10.366;2023-08-31T01:20:38;7.18;;;6.38;;
14789;SDS011;7486;51.010;10.366;2023-08-31T01:26:40;7.88;;;6.85;;
14789;SDS011;7486;51.010;10.366;2023-08-31T01:29:29;7.40;;;6.68;;
14789;SDS011;7486;51.010;10.366;2023-08-31T01:32:14;7.53;;;6.93;;
14789;SDS011;7486;51.010;10.366;2023-08-31T01:35:00;7.28;;;6.68;;
14789;SDS011;7486;51.010;10.366;2023-08-31T01:43:45;7.80;;;7.20;;
14789;SDS011;7486;51.010;10.366;2023-08-31T01:46:33;7.57;;;6.93;;
14789;SDS011;7486;51.010;10.366;2023-08-31T01:49:19;8.07;;;7.28;;
14789;SDS011;7486;51.010;10.366;2023-08-31T01:52:06;8.02;;;7.22;;
14789;SDS011;7486;51.010;10.366;2023-08-31T01:54:51;8.55;;;7.07;;
14789;SDS011;7486;51.010;10.366;2023-08-31T01:57:37;7.93;;;7.22;;
14789;SDS011;7486;51.010;10.366;2023-08-31T02:00:35;7.35;;;6.65;;
14789;SDS011;7486;51.010;10.366;2023-08-31T02:03:20;7.65;;;6.82;;
14789;SDS011;7486;51.010;10.366;2023-08-31T02:06:06;7.93;;;7.13;;
14789;SDS011;7486;51.010;10.366;2023-08-31T02:08:52;7.63;;;6.88;;
14789;SDS011;7486;51.010;10.366;2023-08-31T02:11:37;7.43;;;6.72;;
14789;SDS011;7486;51.010;10.366;2023-08-31T02:14:23;8.10;;;6.95;;
14789;SDS011;7486;51.010;10.366;2023-08-31T02:17:08;7.55;;;6.85;;
14789;SDS011;7486;51.010;10.366;2023-08-31T02:19:54;7.75;;;7.00;;
14789;SDS011;7486;51.010;10.366;2023-08-31T02:22:39;7.57;;;6.78;;
14789;SDS011;7486;51.010;10.366;2023-08-31T02:25:24;8.18;;;7.38;;
14789;SDS011;7486;51.010;10.366;2023-08-31T02:28:10;7.60;;;6.90;;
14789;SDS011;7486;51.010;10.366;2023-08-31T02:31:00;7.20;;;6.60;;
14789;SDS011;7486;51.010;10.366;2023-08-31T02:33:48;7.22;;;6.53;;
14789;SDS011;7486;51.010;10.366;2023-08-31T02:36:33;7.50;;;6.85;;
14789;SDS011;7486;51.010;10.366;2023-08-31T02:39:19;6.95;;;6.35;;
14789;SDS011;7486;51.010;10.366;2023-08-31T02:42:04;6.80;;;6.20;;
14789;SDS011;7486;51.010;10.366;2023-08-31T02:44:53;7.00;;;6.30;;
14789;SDS011;7486;51.010;10.366;2023-08-31T02:47:38;7.95;;;6.80;;
14789;SDS011;7486;51.010;10.366;2023-08-31T02:50:24;7.15;;;6.45;;
14789;SDS011;7486;51.010;10.366;2023-08-31T02:53:09;6.97;;;6.38;;
14789;SDS011;7486;51.010;10.366;2023-08-31T02:55:56;7.10;;;6.40;;
14789;SDS011;7486;51.010;10.366;2023-08-31T02:58:42;7.22;;;6.53;;
14789;SDS011;7486;51.010;10.366;2023-08-31T03:01:27;7.60;;;6.82;;
14789;SDS011;7486;51.010;10.366;2023-08-31T03:04:12;7.78;;;6.97;;
14789;SDS011;7486;51.010;10.366;2023-08-31T03:06:58;7.78;;;7.07;;
14789;SDS011;7486;51.010;10.366;2023-08-31T03:09:48;7.43;;;6.75;;
14789;SDS011;7486;51.010;10.366;2023-08-31T03:12:34;7.40;;;6.70;;
14789;SDS011;7486;51.010;10.366;2023-08-31T03:15:20;7.18;;;6.47;;
14789;SDS011;7486;51.010;10.366;2023-08-31T03:18:05;7.25;;;6.65;;
14789;SDS011;7486;51.010;10.366;2023-08-31T03:20:50;7.10;;;6.47;;
14789;SDS011;7486;51.010;10.366;2023-08-31T03:23:36;7.15;;;6.55;;
14789;SDS011;7486;51.010;10.366;2023-08-31T03:26:22;8.45;;;7.50;;
14789;SDS011;7486;51.010;10.366;2023-08-31T03:29:08;7.95;;;7.15;;
14789;SDS011;7486;51.010;10.366;2023-08-31T03:31:54;7.47;;;6.78;;
14789;SDS011;7486;51.010;10.366;2023-08-31T03:34:40;7.65;;;6.85;;
14789;SDS011;7486;51.010;10.366;2023-08-31T03:37:26;6.78;;;6.13;;
14789;SDS011;7486;51.010;10.366;2023-08-31T03:40:13;8.05;;;7.35;;
14789;SDS011;7486;51.010;10.366;2023-08-31T03:42:59;7.85;;;7.13;;
14789;SDS011;7486;51.010;10.366;2023-08-31T03:45:44;7.75;;;6.90;;
14789;SDS011;7486;51.010;10.366;2023-08-31T03:48:30;7.65;;;7.03;;
14789;SDS011;7486;51.010;10.366;2023-08-31T03:51:15;7.95;;;7.15;;
14789;SDS011;7486;51.010;10.366;2023-08-31T03:54:02;7.50;;;6.85;;
14789;SDS011;7486;51.010;10.366;2023-08-31T03:56:48;8.55;;;7.75;;
14789;SDS011;7486;51.010;10.366;2023-08-31T03:59:33;7.97;;;7.18;;
14789;SDS011;7486;51.010;10.366;2023-08-31T04:02:19;7.88;;;7.07;;
14789;SDS011;7486;51.010;10.366;2023-08-31T04:05:05;9.27;;;8.38;;
14789;SDS011;7486;51.010;10.366;2023-08-31T04:07:51;8.40;;;7.05;;
14789;SDS011;7486;51.010;10.366;2023-08-31T04:10:37;7.72;;;7.03;;
14789;SDS011;7486;51.010;10.366;2023-08-31T04:13:22;7.88;;;7.18;;
14789;SDS011;7486;51.010;10.366;2023-08-31T04:16:08;7.97;;;7.20;;
14789;SDS011;7486;51.010;10.366;2023-08-31T04:18:55;8.82;;;7.95;;
14789;SDS011;7486;51.010;10.366;2023-08-31T04:21:41;7.82;;;6.97;;
14789;SDS011;7486;51.010;10.366;2023-08-31T04:24:26;8.90;;;8.10;;
14789;SDS011;7486;51.010;10.366;2023-08-31T04:27:12;10.82;;;8.10;;
14789;SDS011;7486;51.010;10.366;2023-08-31T04:30:00;8.63;;;7.82;;
14789;SDS011;7486;51.010;10.366;2023-08-31T04:32:47;8.65;;;7.85;;
14789;SDS011;7486;51.010;10.366;2023-08-31T04:35:32;8.65;;;7.75;;
14789;SDS011;7486;51.010;10.366;2023-08-31T04:38:19;10.90;;;8.35;;
14789;SDS011;7486;51.010;10.366;2023-08-31T04:41:04;8.32;;;7.53;;
14789;SDS011;7486;51.010;10.366;2023-08-31T04:43:50;9.40;;;8.50;;
14789;SDS011;7486;51.010;10.366;2023-08-31T04:46:36;8.75;;;7.95;;
14789;SDS011;7486;51.010;10.366;2023-08-31T04:49:21;8.85;;;8.02;;
14789;SDS011;7486;51.010;10.366;2023-08-31T04:52:07;9.57;;;8.50;;
14789;SDS011;7486;51.010;10.366;2023-08-31T04:54:52;9.50;;;8.18;;
14789;SDS011;7486;51.010;10.366;2023-08-31T04:57:38;9.52;;;8.52;;
14789;SDS011;7486;51.010;10.366;2023-08-31T05:00:24;9.75;;;8.68;;
14789;SDS011;7486;51.010;10.366;2023-08-31T05:03:09;9.27;;;8.48;;
14789;SDS011;7486;51.010;10.366;2023-08-31T05:05:55;8.98;;;8.15;;
14789;SDS011;7486;51.010;10.366;2023-08-31T05:08:41;8.95;;;8.05;;
14789;SDS011;7486;51.010;10.366;2023-08-31T05:11:26;9.50;;;8.50;;
14789;SDS011;7486;51.010;10.366;2023-08-31T05:14:12;9.23;;;8.32;;
14789;SDS011;7486;51.010;10.366;2023-08-31T05:16:57;9.00;;;8.00;;
14789;SDS011;7486;51.010;10.366;2023-08-31T05:19:43;10.38;;;9.30;;
14789;SDS011;7486;51.010;10.366;2023-08-31T05:22:28;8.88;;;8.05;;
14789;SDS011;7486;51.010;10.366;2023-08-31T05:25:14;9.25;;;8.32;;
14789;SDS011;7486;51.010;10.366;2023-08-31T05:27:59;10.48;;;9.38;;
14789;SDS011;7486;51.010;10.366;2023-08-31T05:30:52;9.75;;;8.75;;
14789;SDS011;7486;51.010;10.366;2023-08-31T05:33:38;9.23;;;8.38;;
14789;SDS011;7486;51.010;10.366;2023-08-31T05:36:24;9.07;;;8.27;;
14789;SDS011;7486;51.010;10.366;2023-08-31T05:39:10;10.27;;;8.93;;
14789;SDS011;7486;51.010;10.366;2023-08-31T05:41:55;9.05;;;8.25;;
14789;SDS011;7486;51.010;10.366;2023-08-31T05:44:41;9.60;;;8.80;;
14789;SDS011;7486;51.010;10.366;2023-08-31T05:47:26;10.07;;;9.07;;
14789;SDS011;7486;51.010;10.366;2023-08-31T05:50:12;11.40;;;8.15;;
14789;SDS011;7486;51.010;10.366;2023-08-31T05:52:58;10.05;;;9.00;;
14789;SDS011;7486;51.010;10.366;2023-08-31T05:55:43;9.45;;;8.50;;
14789;SDS011;7486;51.010;10.366;2023-08-31T05:58:32;9.77;;;8.63;;
14789;SDS011;7486;51.010;10.366;2023-08-31T06:01:18;12.00;;;9.85;;
14789;SDS011;7486;51.010;10.366;2023-08-31T06:04:04;8.90;;;7.95;;
14789;SDS011;7486;51.010;10.366;2023-08-31T06:06:49;9.70;;;8.80;;
14789;SDS011;7486;51.010;10.366;2023-08-31T06:09:35;9.63;;;8.57;;
14789;SDS011;7486;51.010;10.366;2023-08-31T06:12:20;9.18;;;8.27;;
14789;SDS011;7486;51.010;10.366;2023-08-31T06:15:06;9.10;;;8.20;;
14789;SDS011;7486;51.010;10.366;2023-08-31T06:17:51;8.88;;;7.90;;
14789;SDS011;7486;51.010;10.366;2023-08-31T06:20:37;10.45;;;8.73;;
14789;SDS011;7486;51.010;10.366;2023-08-31T06:23:22;9.45;;;8.45;;
14789;SDS011;7486;51.010;10.366;2023-08-31T06:26:08;9.45;;;8.55;;
14789;SDS011;7486;51.010;10.366;2023-08-31T06:28:53;9.90;;;8.88;;
14789;SDS011;7486;51.010;10.366;2023-08-31T06:31:39;10.25;;;9.25;;
14789;SDS011;7486;51.010;10.366;2023-08-31T06:34:24;8.80;;;7.95;;
14789;SDS011;7486;51.010;10.366;2023-08-31T06:37:10;9.40;;;8.50;;
14789;SDS011;7486;51.010;10.366;2023-08-31T06:39:55;9.80;;;8.90;;
14789;SDS011;7486;51.010;10.366;2023-08-31T06:42:41;10.35;;;8.82;;
14789;SDS011;7486;51.010;10.366;2023-08-31T06:45:26;9.90;;;8.40;;
14789;SDS011;7486;51.010;10.366;2023-08-31T06:48:13;10.13;;;9.13;;
14789;SDS011;7486;51.010;10.366;2023-08-31T06:50:59;10.77;;;8.77;;
14789;SDS011;7486;51.010;10.366;2023-08-31T06:53:44;9.65;;;8.73;;
14789;SDS011;7486;51.010;10.366;2023-08-31T06:56:30;9.38;;;8.35;;
14789;SDS011;7486;51.010;10.366;2023-08-31T06:59:15;10.00;;;8.68;;
14789;SDS011;7486;51.010;10.366;2023-08-31T07:02:01;8.88;;;8.00;;
14789;SDS011;7486;51.010;10.366;2023-08-31T07:04:46;9.68;;;8.68;;
14789;SDS011;7486;51.010;10.366;2023-08-31T07:07:31;7.90;;;7.10;;
14789;SDS011;7486;51.010;10.366;2023-08-31T07:10:17;9.10;;;8.20;;
14789;SDS011;7486;51.010;10.366;2023-08-31T07:13:03;7.93;;;7.22;;
14789;SDS011;7486;51.010;10.366;2023-08-31T07:15:49;8.60;;;7.70;;
14789;SDS011;7486;51.010;10.366;2023-08-31T07:18:35;7.57;;;6.63;;
14789;SDS011;7486;51.010;10.366;2023-08-31T07:21:21;7.93;;;6.97;;
14789;SDS011;7486;51.010;10.366;2023-08-31T07:24:07;8.30;;;6.25;;
14789;SDS011;7486;51.010;10.366;2023-08-31T07:26:53;8.73;;;6.63;;
14789;SDS011;7486;51.010;10.366;2023-08-31T07:29:38;6.72;;;6.05;;
14789;SDS011;7486;51.010;10.366;2023-08-31T07:32:24;7.22;;;6.35;;
14789;SDS011;7486;51.010;10.366;2023-08-31T07:35:09;6.70;;;5.90;;
14789;SDS011;7486;51.010;10.366;2023-08-31T07:37:55;7.43;;;5.75;;
14789;SDS011;7486;51.010;10.366;2023-08-31T07:40:41;6.30;;;5.70;;
14789;SDS011;7486;51.010;10.366;2023-08-31T07:43:27;7.05;;;5.35;;
14789;SDS011;7486;51.010;10.366;2023-08-31T07:46:12;7.28;;;5.28;;
14789;SDS011;7486;51.010;10.366;2023-08-31T07:48:58;6.65;;;5.28;;
14789;SDS011;7486;51.010;10.366;2023-08-31T07:51:43;7.65;;;4.60;;
14789;SDS011;7486;51.010;10.366;2023-08-31T07:54:29;6.57;;;4.30;;
14789;SDS011;7486;51.010;10.366;2023-08-31T07:57:15;5.45;;;4.68;;
14789;SDS011;7486;51.010;10.366;2023-08-31T08:00:01;4.40;;;4.00;;
14789;SDS011;7486;51.010;10.366;2023-08-31T08:02:56;5.47;;;4.10;;
14789;SDS011;7486;51.010;10.366;2023-08-31T08:05:42;4.75;;;3.78;;
14789;SDS011;7486;51.010;10.366;2023-08-31T08:08:28;4.97;;;3.20;;
14789;SDS011;7486;51.010;10.366;2023-08-31T08:11:14;5.57;;;3.00;;
14789;SDS011;7486;51.010;10.366;2023-08-31T08:13:59;5.28;;;3.05;;
14789;SDS011;7486;51.010;10.366;2023-08-31T08:16:44;4.68;;;3.00;;
14789;SDS011;7486;51.010;10.366;2023-08-31T08:19:30;3.75;;;2.90;;
14789;SDS011;7486;51.010;10.366;2023-08-31T08:22:15;4.18;;;2.70;;
14789;SDS011;7486;51.010;10.366;2023-08-31T08:25:01;4.50;;;2.60;;
14789;SDS011;7486;51.010;10.366;2023-08-31T08:27:46;4.25;;;2.90;;
14789;SDS011;7486;51.010;10.366;2023-08-31T08:30:32;3.45;;;2.60;;
14789;SDS011;7486;51.010;10.366;2023-08-31T08:33:18;2.58;;;2.35;;
14789;SDS011;7486;51.010;10.366;2023-08-31T08:36:04;3.58;;;2.67;;
14789;SDS011;7486;51.010;10.366;2023-08-31T08:38:49;4.70;;;2.50;;
14789;SDS011;7486;51.010;10.366;2023-08-31T08:41:35;5.53;;;2.60;;
14789;SDS011;7486;51.010;10.366;2023-08-31T08:44:23;4.45;;;2.65;;
14789;SDS011;7486;51.010;10.366;2023-08-31T08:47:11;4.88;;;2.50;;
14789;SDS011;7486;51.010;10.366;2023-08-31T08:49:57;5.57;;;2.17;;
14789;SDS011;7486;51.010;10.366;2023-08-31T08:52:43;4.10;;;2.17;;
14789;SDS011;7486;51.010;10.366;2023-08-31T08:55:30;3.90;;;2.05;;
14789;SDS011;7486;51.010;10.366;2023-08-31T08:58:15;3.35;;;2.13;;
14789;SDS011;7486;51.010;10.366;2023-08-31T09:01:01;4.70;;;2.20;;
14789;SDS011;7486;51.010;10.366;2023-08-31T09:03:48;2.33;;;2.03;;
14789;SDS011;7486;51.010;10.366;2023-08-31T09:06:34;2.80;;;2.15;;
14789;SDS011;7486;51.010;10.366;2023-08-31T09:09:22;2.92;;;1.95;;
14789;SDS011;7486;51.010;10.366;2023-08-31T09:12:07;3.50;;;2.10;;
14789;SDS011;7486;51.010;10.366;2023-08-31T09:14:59;3.45;;;2.33;;
14789;SDS011;7486;51.010;10.366;2023-08-31T09:17:46;2.53;;;2.00;;
14789;SDS011;7486;51.010;10.366;2023-08-31T09:20:40;6.20;;;2.20;;
14789;SDS011;7486;51.010;10.366;2023-08-31T09:23:28;2.47;;;2.00;;
14789;SDS011;7486;51.010;10.366;2023-08-31T09:26:14;2.75;;;1.85;;
14789;SDS011;7486;51.010;10.366;2023-08-31T09:28:59;2.85;;;1.90;;
14789;SDS011;7486;51.010;10.366;2023-08-31T09:31:45;2.03;;;1.60;;
14789;SDS011;7486;51.010;10.366;2023-08-31T09:34:34;3.38;;;1.70;;
14789;SDS011;7486;51.010;10.366;2023-08-31T09:37:21;2.60;;;1.75;;
14789;SDS011;7486;51.010;10.366;2023-08-31T09:40:07;3.17;;;1.98;;
14789;SDS011;7486;51.010;10.366;2023-08-31T09:42:53;2.63;;;1.65;;
14789;SDS011;7486;51.010;10.366;2023-08-31T09:45:38;2.38;;;1.45;;
14789;SDS011;7486;51.010;10.366;2023-08-31T09:48:30;1.90;;;1.40;;
14789;SDS011;7486;51.010;10.366;2023-08-31T09:51:17;3.45;;;1.55;;
14789;SDS011;7486;51.010;10.366;2023-08-31T09:54:04;3.80;;;1.60;;
14789;SDS011;7486;51.010;10.366;2023-08-31T09:56:52;1.98;;;1.50;;
14789;SDS011;7486;51.010;10.366;2023-08-31T09:59:41;2.38;;;1.70;;
14789;SDS011;7486;51.010;10.366;2023-08-31T10:02:27;2.75;;;1.77;;
14789;SDS011;7486;51.010;10.366;2023-08-31T10:05:15;2.28;;;1.73;;
14789;SDS011;7486;51.010;10.366;2023-08-31T10:08:00;1.92;;;1.50;;
14789;SDS011;7486;51.010;10.366;2023-08-31T10:10:47;2.42;;;1.40;;
14789;SDS011;7486;51.010;10.366;2023-08-31T10:13:33;3.42;;;1.70;;
14789;SDS011;7486;51.010;10.366;2023-08-31T10:16:19;3.85;;;1.42;;
14789;SDS011;7486;51.010;10.366;2023-08-31T10:19:05;1.98;;;1.40;;
14789;SDS011;7486;51.010;10.366;2023-08-31T10:21:50;2.50;;;1.40;;
14789;SDS011;7486;51.010;10.366;2023-08-31T10:27:48;3.67;;;1.45;;
14789;SDS011;7486;51.010;10.366;2023-08-31T10:30:33;1.85;;;1.42;;
14789;SDS011;7486;51.010;10.366;2023-08-31T10:33:22;3.17;;;1.60;;
14789;SDS011;7486;51.010;10.366;2023-08-31T10:36:12;2.28;;;1.38;;
14789;SDS011;7486;51.010;10.366;2023-08-31T10:41:51;2.10;;;1.50;;
14789;SDS011;7486;51.010;10.366;2023-08-31T10:44:39;2.97;;;1.67;;
14789;SDS011;7486;51.010;10.366;2023-08-31T10:47:36;1.83;;;1.30;;
14789;SDS011;7486;51.010;10.366;2023-08-31T10:50:24;2.00;;;1.60;;
14789;SDS011;7486;51.010;10.366;2023-08-31T10:53:10;2.08;;;1.33;;
14789;SDS011;7486;51.010;10.366;2023-08-31T10:55:56;4.13;;;1.70;;
14789;SDS011;7486;51.010;10.366;2023-08-31T10:58:41;1.88;;;1.58;;
14789;SDS011;7486;51.010;10.366;2023-08-31T11:04:54;1.83;;;1.40;;
14789;SDS011;7486;51.010;10.366;2023-08-31T11:07:42;2.05;;;1.20;;
14789;SDS011;7486;51.010;10.366;2023-08-31T11:10:29;1.42;;;1.30;;
14789;SDS011;7486;51.010;10.366;2023-08-31T11:13:22;3.28;;;1.50;;
14789;SDS011;7486;51.010;10.366;2023-08-31T11:16:08;3.05;;;1.50;;
14789;SDS011;7486;51.010;10.366;2023-08-31T11:18:53;2.50;;;1.30;;
14789;SDS011;7486;51.010;10.366;2023-08-31T11:21:39;1.88;;;1.20;;
14789;SDS011;7486;51.010;10.366;2023-08-31T11:24:25;1.35;;;1.00;;
14789;SDS011;7486;51.010;10.366;2023-08-31T11:27:10;3.92;;;1.17;;
14789;SDS011;7486;51.010;10.366;2023-08-31T11:29:56;2.25;;;1.15;;
14789;SDS011;7486;51.010;10.366;2023-08-31T11:32:46;3.22;;;1.30;;
14789;SDS011;7486;51.010;10.366;2023-08-31T11:35:33;2.78;;;1.20;;
14789;SDS011;7486;51.010;10.366;2023-08-31T11:38:23;3.58;;;1.27;;
14789;SDS011;7486;51.010;10.366;2023-08-31T11:41:09;2.67;;;1.23;;
14789;SDS011;7486;51.010;10.366;2023-08-31T11:43:55;2.88;;;1.17;;
14789;SDS011;7486;51.010;10.366;2023-08-31T11:46:41;1.15;;;1.05;;
14789;SDS011;7486;51.010;10.366;2023-08-31T11:49:28;4.57;;;1.20;;
14789;SDS011;7486;51.010;10.366;2023-08-31T11:52:13;3.53;;;1.00;;
14789;SDS011;7486;51.010;10.366;2023-08-31T11:54:59;2.30;;;1.15;;
14789;SDS011;7486;51.010;10.366;2023-08-31T11:57:52;1.98;;;1.10;;
14789;SDS011;7486;51.010;10.366;2023-08-31T12:00:38;2.03;;;1.20;;
14789;SDS011;7486;51.010;10.366;2023-08-31T12:03:24;1.60;;;1.02;;
14789;SDS011;7486;51.010;10.366;2023-08-31T12:06:28;1.90;;;1.20;;
14789;SDS011;7486;51.010;10.366;2023-08-31T12:09:14;1.23;;;1.13;;
14789;SDS011;7486;51.010;10.366;2023-08-31T12:11:59;1.55;;;1.20;;
14789;SDS011;7486;51.010;10.366;2023-08-31T12:14:47;1.55;;;1.10;;
14789;SDS011;7486;51.010;10.366;2023-08-31T12:17:36;3.13;;;1.20;;
14789;SDS011;7486;51.010;10.366;2023-08-31T12:20:25;3.35;;;1.20;;
14789;SDS011;7486;51.010;10.366;2023-08-31T12:23:11;1.27;;;1.00;;
14789;SDS011;7486;51.010;10.366;2023-08-31T12:25:57;2.08;;;1.17;;
14789;SDS011;7486;51.010;10.366;2023-08-31T12:28:42;2.47;;;1.10;;
14789;SDS011;7486;51.010;10.366;2023-08-31T12:31:27;1.40;;;1.10;;
14789;SDS011;7486;51.010;10.366;2023-08-31T12:34:13;2.35;;;1.00;;
14789;SDS011;7486;51.010;10.366;2023-08-31T12:36:59;2.20;;;1.10;;
14789;SDS011;7486;51.010;10.366;2023-08-31T12:39:45;3.13;;;1.20;;
14789;SDS011;7486;51.010;10.366;2023-08-31T12:42:30;2.33;;;1.30;;
14789;SDS011;7486;51.010;10.366;2023-08-31T12:45:16;1.35;;;1.17;;
14789;SDS011;7486;51.010;10.366;2023-08-31T12:48:01;1.60;;;1.20;;
14789;SDS011;7486;51.010;10.366;2023-08-31T12:50:46;2.08;;;1.00;;
14789;SDS011;7486;51.010;10.366;2023-08-31T12:53:32;2.17;;;1.20;;
14789;SDS011;7486;51.010;10.366;2023-08-31T12:56:17;1.30;;;1.20;;
14789;SDS011;7486;51.010;10.366;2023-08-31T12:59:02;3.83;;;1.40;;
14789;SDS011;7486;51.010;10.366;2023-08-31T13:01:48;2.00;;;1.23;;
14789;SDS011;7486;51.010;10.366;2023-08-31T13:04:33;1.75;;;1.20;;
14789;SDS011;7486;51.010;10.366;2023-08-31T13:07:19;1.73;;;1.17;;
14789;SDS011;7486;51.010;10.366;2023-08-31T13:10:05;2.00;;;1.17;;
14789;SDS011;7486;51.010;10.366;2023-08-31T13:12:51;3.22;;;1.13;;
14789;SDS011;7486;51.010;10.366;2023-08-31T13:15:36;2.85;;;1.30;;
14789;SDS011;7486;51.010;10.366;2023-08-31T13:18:21;3.50;;;1.20;;
14789;SDS011;7486;51.010;10.366;2023-08-31T13:21:07;2.75;;;1.20;;
14789;SDS011;7486;51.010;10.366;2023-08-31T13:23:53;2.65;;;1.13;;
14789;SDS011;7486;51.010;10.366;2023-08-31T13:26:38;2.47;;;1.20;;
14789;SDS011;7486;51.010;10.366;2023-08-31T13:29:23;2.85;;;1.08;;
14789;SDS011;7486;51.010;10.366;2023-08-31T13:32:09;2.15;;;1.00;;
14789;SDS011;7486;51.010;10.366;2023-08-31T13:34:55;1.85;;;1.08;;
14789;SDS011;7486;51.010;10.366;2023-08-31T13:37:41;1.88;;;1.00;;
14789;SDS011;7486;51.010;10.366;2023-08-31T13:40:26;1.92;;;1.05;;
14789;SDS011;7486;51.010;10.366;2023-08-31T13:43:12;1.20;;;1.00;;
14789;SDS011;7486;51.010;10.366;2023-08-31T13:45:57;2.40;;;1.17;;
14789;SDS011;7486;51.010;10.366;2023-08-31T13:48:42;2.38;;;1.20;;
14789;SDS011;7486;51.010;10.366;2023-08-31T13:51:28;1.23;;;1.10;;
14789;SDS011;7486;51.010;10.366;2023-08-31T13:54:14;3.17;;;1.20;;
14789;SDS011;7486;51.010;10.366;2023-08-31T13:56:59;1.48;;;1.00;;
14789;SDS011;7486;51.010;10.366;2023-08-31T13:59:45;2.78;;;1.27;;
14789;SDS011;7486;51.010;10.366;2023-08-31T14:02:30;1.55;;;0.90;;
14789;SDS011;7486;51.010;10.366;2023-08-31T14:05:16;2.15;;;0.98;;
14789;SDS011;7486;51.010;10.366;2023-08-31T14:08:01;3.28;;;1.00;;
14789;SDS011;7486;51.010;10.366;2023-08-31T14:10:47;2.28;;;0.88;;
14789;SDS011;7486;51.010;10.366;2023-08-31T14:13:32;1.42;;;1.10;;
14789;SDS011;7486;51.010;10.366;2023-08-31T14:16:18;1.90;;;0.95;;
14789;SDS011;7486;51.010;10.366;2023-08-31T14:19:03;2.38;;;1.00;;
14789;SDS011;7486;51.010;10.366;2023-08-31T14:21:49;3.25;;;1.02;;
14789;SDS011;7486;51.010;10.366;2023-08-31T14:24:35;2.03;;;1.05;;
14789;SDS011;7486;51.010;10.366;2023-08-31T14:27:21;2.15;;;1.10;;
14789;SDS011;7486;51.010;10.366;2023-08-31T14:30:06;2.10;;;1.13;;
14789;SDS011;7486;51.010;10.366;2023-08-31T14:32:52;2.10;;;0.80;;
14789;SDS011;7486;51.010;10.366;2023-08-31T14:35:37;1.80;;;1.10;;
14789;SDS011;7486;51.010;10.366;2023-08-31T14:38:23;2.05;;;1.20;;
14789;SDS011;7486;51.010;10.366;2023-08-31T14:41:09;3.53;;;1.23;;
14789;SDS011;7486;51.010;10.366;2023-08-31T14:43:54;1.60;;;1.10;;
14789;SDS011;7486;51.010;10.366;2023-08-31T14:46:40;2.97;;;1.20;;
14789;SDS011;7486;51.010;10.366;2023-08-31T14:49:26;2.90;;;1.13;;
14789;SDS011;7486;51.010;10.366;2023-08-31T14:52:11;2.10;;;1.05;;
14789;SDS011;7486;51.010;10.366;2023-08-31T14:54:57;2.28;;;1.10;;
14789;SDS011;7486;51.010;10.366;2023-08-31T14:57:42;2.83;;;1.13;;
14789;SDS011;7486;51.010;10.366;2023-08-31T15:00:27;1.48;;;1.00;;
14789;SDS011;7486;51.010;10.366;2023-08-31T15:03:13;1.73;;;1.00;;
14789;SDS011;7486;51.010;10.366;2023-08-31T15:05:59;2.58;;;1.20;;
14789;SDS011;7486;51.010;10.366;2023-08-31T15:08:44;2.13;;;1.10;;
14789;SDS011;7486;51.010;10.366;2023-08-31T15:11:30;2.60;;;1.10;;
14789;SDS011;7486;51.010;10.366;2023-08-31T15:14:15;2.70;;;1.00;;
14789;SDS011;7486;51.010;10.366;2023-08-31T15:17:01;1.77;;;1.20;;
14789;SDS011;7486;51.010;10.366;2023-08-31T15:19:46;2.10;;;1.00;;
14789;SDS011;7486;51.010;10.366;2023-08-31T15:22:31;2.67;;;1.10;;
14789;SDS011;7486;51.010;10.366;2023-08-31T15:25:19;2.25;;;0.95;;
14789;SDS011;7486;51.010;10.366;2023-08-31T15:28:05;2.00;;;1.00;;
14789;SDS011;7486;51.010;10.366;2023-08-31T15:30:52;2.20;;;0.90;;
14789;SDS011;7486;51.010;10.366;2023-08-31T15:33:37;2.25;;;1.30;;
14789;SDS011;7486;51.010;10.366;2023-08-31T15:36:23;1.88;;;1.30;;
14789;SDS011;7486;51.010;10.366;2023-08-31T15:39:08;2.95;;;1.20;;
14789;SDS011;7486;51.010;10.366;2023-08-31T15:41:54;2.65;;;1.00;;
14789;SDS011;7486;51.010;10.366;2023-08-31T15:44:40;2.22;;;1.10;;
14789;SDS011;7486;51.010;10.366;2023-08-31T15:47:26;1.65;;;0.95;;
14789;SDS011;7486;51.010;10.366;2023-08-31T15:50:12;3.53;;;1.05;;
14789;SDS011;7486;51.010;10.366;2023-08-31T15:52:57;3.70;;;1.42;;
14789;SDS011;7486;51.010;10.366;2023-08-31T15:55:45;3.17;;;1.40;;
14789;SDS011;7486;51.010;10.366;2023-08-31T15:58:31;2.55;;;1.30;;
14789;SDS011;7486;51.010;10.366;2023-08-31T16:01:17;3.38;;;1.33;;
14789;SDS011;7486;51.010;10.366;2023-08-31T16:04:02;2.42;;;1.27;;
14789;SDS011;7486;51.010;10.366;2023-08-31T16:06:48;2.25;;;1.10;;
14789;SDS011;7486;51.010;10.366;2023-08-31T16:09:33;2.35;;;1.17;;
14789;SDS011;7486;51.010;10.366;2023-08-31T16:12:19;2.65;;;1.45;;
14789;SDS011;7486;51.010;10.366;2023-08-31T16:15:04;1.73;;;1.25;;
14789;SDS011;7486;51.010;10.366;2023-08-31T16:17:50;2.50;;;1.42;;
14789;SDS011;7486;51.010;10.366;2023-08-31T16:20:36;3.17;;;1.40;;
14789;SDS011;7486;51.010;10.366;2023-08-31T16:23:22;2.28;;;1.33;;
14789;SDS011;7486;51.010;10.366;2023-08-31T16:26:07;3.58;;;2.95;;
14789;SDS011;7486;51.010;10.366;2023-08-31T16:28:53;7.57;;;6.82;;
14789;SDS011;7486;51.010;10.366;2023-08-31T16:31:38;7.28;;;6.53;;
14789;SDS011;7486;51.010;10.366;2023-08-31T16:34:24;3.08;;;2.50;;
14789;SDS011;7486;51.010;10.366;2023-08-31T16:37:10;5.38;;;2.10;;
14789;SDS011;7486;51.010;10.366;2023-08-31T16:39:55;1.92;;;1.63;;
14789;SDS011;7486;51.010;10.366;2023-08-31T16:42:41;2.20;;;1.40;;
14789;SDS011;7486;51.010;10.366;2023-08-31T16:45:26;2.10;;;1.33;;
14789;SDS011;7486;51.010;10.366;2023-08-31T16:48:13;3.67;;;1.40;;
14789;SDS011;7486;51.010;10.366;2023-08-31T16:50:59;2.40;;;1.23;;
14789;SDS011;7486;51.010;10.366;2023-08-31T16:53:45;2.47;;;1.60;;
14789;SDS011;7486;51.010;10.366;2023-08-31T16:56:32;1.88;;;1.50;;
14789;SDS011;7486;51.010;10.366;2023-08-31T16:59:17;3.63;;;1.55;;
14789;SDS011;7486;51.010;10.366;2023-08-31T17:02:03;2.00;;;1.20;;
14789;SDS011;7486;51.010;10.366;2023-08-31T17:04:49;2.80;;;1.48;;
14789;SDS011;7486;51.010;10.366;2023-08-31T17:07:37;2.35;;;1.83;;